Colman, South Dakota
Current Conditions -  °F | °C
As of 3:30 PM on Thursday 18 Dec 2014 (Local Time) from KMDS Reporting Station
Overcast Overcast  
Wind Chill: 16°   Ceiling: 1100
Heat Index: 25°   Visibility: 10mi
Dew Point: 25°   Wind: 8mph
Humidity: 100%   Direction: 200°SSW
Pressure: 30.15"   Gusts: NA
Location:  43.98°N, 96.81°W
Report Text: KMDS 182130Z AUTO 20007KT 10SM OVC011 M04/M04 A3015 RMK AO2
Loading
Personal Weather Stations






























Interactive Weather Map New forecast layout! Learn more

10-Day Weather Forecast

Advertisements
Track Severe Weather on mobile